Time;durP1;ratioP1;P1;durP2;ratioP2;P2;SDS_P1;SDS_P2;PMS_P1;PMS_P2;Temp;Humidity;BMP_temperature;BMP_pressure;BME280_temperature;BME280_humidity;BME280_pressure;Samples;Min_cycle;Max_cycle;Signal;HPM_P1;HPM_P2
2024/01/11 00:00:50;;;;;;;33.97;16.50;;;-3.60;99.90;;;;;;5043537;28;20398;-59
2024/01/11 00:03:16;;;;;;;33.42;18.23;;;-3.60;99.90;;;;;;5043100;28;20482;-51
2024/01/11 00:05:42;;;;;;;34.28;17.30;;;-3.60;99.90;;;;;;5025050;28;20155;-57
2024/01/11 00:08:08;;;;;;;38.92;21.00;;;-3.60;99.90;;;;;;5043211;28;20049;-57
2024/01/11 00:10:33;;;;;;;31.15;17.70;;;-3.60;99.90;;;;;;5042621;28;20060;-52
2024/01/11 00:12:59;;;;;;;36.45;18.58;;;-3.70;99.90;;;;;;5042069;28;20749;-53
2024/01/11 00:15:25;;;;;;;32.50;19.05;;;-3.60;99.90;;;;;;5041828;28;20049;-59
2024/01/11 00:17:50;;;;;;;33.22;17.63;;;-3.60;99.90;;;;;;5043614;28;20546;-48
2024/01/11 00:20:16;;;;;;;37.05;18.98;;;-3.60;99.90;;;;;;5041836;28;20083;-57
2024/01/11 00:22:42;;;;;;;32.50;17.98;;;-3.60;99.90;;;;;;5024665;28;20114;-55
2024/01/11 00:25:08;;;;;;;36.10;18.52;;;-3.60;99.90;;;;;;5055184;28;20526;-48
2024/01/11 00:27:34;;;;;;;33.55;18.75;;;-3.60;99.90;;;;;;5023388;28;20079;-54
2024/01/11 00:30:00;;;;;;;32.78;18.98;;;-3.50;99.90;;;;;;5024559;28;20479;-57
2024/01/11 00:32:25;;;;;;;32.58;17.20;;;-3.50;99.90;;;;;;5039279;28;20160;-47
2024/01/11 00:34:52;;;;;;;38.42;19.77;;;-3.50;99.90;;;;;;5042386;28;20421;-50
2024/01/11 00:37:18;;;;;;;37.40;18.65;;;-3.60;99.90;;;;;;5041013;28;20115;-57
2024/01/11 00:39:43;;;;;;;33.88;18.50;;;-3.60;99.90;;;;;;5023721;28;20554;-54
2024/01/11 00:42:09;;;;;;;33.20;17.95;;;-3.60;99.90;;;;;;5041833;28;20114;-53
2024/01/11 00:44:35;;;;;;;31.02;17.48;;;-3.50;99.90;;;;;;5041535;28;20498;-52
2024/01/11 00:47:00;;;;;;;32.22;17.67;;;-3.50;99.90;;;;;;5049893;28;20048;-54
2024/01/11 00:49:26;;;;;;;28.85;16.08;;;-3.60;99.90;;;;;;5022160;28;20053;-55
2024/01/11 00:51:53;;;;;;;33.28;17.05;;;-3.60;99.90;;;;;;5042633;28;20752;-53
2024/01/11 00:54:19;;;;;;;35.28;17.48;;;-3.60;99.90;;;;;;5022179;28;20091;-57
2024/01/11 00:56:44;;;;;;;30.42;16.05;;;-3.70;99.90;;;;;;5041836;28;20085;-58
2024/01/11 00:59:11;;;;;;;31.42;17.52;;;-3.70;99.90;;;;;;5040233;28;20479;-62
2024/01/11 01:01:37;;;;;;;34.75;17.05;;;-3.80;99.90;;;;;;5043898;28;20044;-58
2024/01/11 01:04:03;;;;;;;28.77;15.65;;;-3.80;99.90;;;;;;5062595;28;20040;-52
2024/01/11 01:06:28;;;;;;;26.98;15.50;;;-3.80;99.90;;;;;;5056566;28;20577;-54
2024/01/11 01:08:55;;;;;;;33.65;17.30;;;-3.80;99.90;;;;;;5057639;28;20045;-54
2024/01/11 01:11:21;;;;;;;31.92;17.02;;;-3.70;99.90;;;;;;5044132;28;20100;-49
2024/01/11 01:13:47;;;;;;;27.52;17.08;;;-3.70;99.90;;;;;;5045842;28;20763;-54
2024/01/11 01:16:14;;;;;;;30.58;16.23;;;-3.70;99.90;;;;;;5026825;28;20087;-50
2024/01/11 01:18:40;;;;;;;27.63;16.60;;;-3.70;99.90;;;;;;5054067;28;20103;-50
2024/01/11 01:21:06;;;;;;;29.27;15.85;;;-3.80;99.90;;;;;;5051032;28;20074;-46
2024/01/11 01:23:32;;;;;;;31.27;16.95;;;-3.90;99.90;;;;;;5026578;28;20128;-51
2024/01/11 01:25:58;;;;;;;36.70;17.25;;;-3.90;99.90;;;;;;5046449;28;20124;-54
2024/01/11 01:28:24;;;;;;;34.00;17.60;;;-4.00;99.90;;;;;;5047677;28;20159;-51
2024/01/11 01:30:49;;;;;;;30.65;16.58;;;-4.00;99.90;;;;;;5056334;28;20584;-60
2024/01/11 01:33:15;;;;;;;29.92;16.98;;;-4.10;99.90;;;;;;5043585;28;20075;-51
2024/01/11 01:35:41;;;;;;;31.05;16.38;;;-4.10;99.90;;;;;;5035195;28;20399;-58
2024/01/11 01:38:06;;;;;;;38.33;18.48;;;-4.20;99.90;;;;;;5051949;28;20041;-51
2024/01/11 01:40:32;;;;;;;31.50;17.73;;;-4.20;99.90;;;;;;5044942;28;20045;-47
2024/01/11 01:43:02;;;;;;;32.45;17.05;;;-4.30;99.90;;;;;;5035520;28;20056;-55
2024/01/11 01:45:27;;;;;;;34.90;17.60;;;-4.30;99.90;;;;;;5041569;28;20118;-52
2024/01/11 01:47:54;;;;;;;31.45;17.27;;;-4.30;99.90;;;;;;5046038;28;20553;-54
2024/01/11 01:50:21;;;;;;;29.67;15.93;;;-4.40;99.90;;;;;;5043765;28;20044;-60
2024/01/11 01:52:47;;;;;;;34.55;17.75;;;-4.40;99.90;;;;;;5043879;28;20049;-59
2024/01/11 01:55:15;;;;;;;30.70;16.52;;;-4.50;99.90;;;;;;5044423;28;20051;-50
2024/01/11 01:57:42;;;;;;;36.55;18.33;;;-4.50;99.90;;;;;;5027189;28;20049;-55
2024/01/11 02:00:13;;;;;;;28.88;15.15;;;-4.60;99.90;;;;;;5045489;28;20540;-53
2024/01/11 02:02:41;;;;;;;28.95;16.25;;;-4.50;99.90;;;;;;5043842;28;20046;-47
2024/01/11 02:05:09;;;;;;;35.35;16.98;;;-4.60;99.90;;;;;;5044711;28;20084;-60
2024/01/11 02:07:35;;;;;;;31.77;17.40;;;-4.60;99.90;;;;;;5042770;28;20131;-54
2024/01/11 02:10:02;;;;;;;31.30;16.67;;;-4.60;99.90;;;;;;5054408;28;20135;-57
2024/01/11 02:12:29;;;;;;;29.35;16.35;;;-4.70;99.90;;;;;;5030179;28;20524;-52
2024/01/11 02:14:55;;;;;;;30.17;15.95;;;-4.70;99.90;;;;;;5045033;28;20075;-54
2024/01/11 02:17:21;;;;;;;33.30;17.40;;;-4.70;99.90;;;;;;5043710;28;20057;-57
2024/01/11 02:19:47;;;;;;;30.27;15.40;;;-4.70;99.90;;;;;;5042664;28;20803;-53
2024/01/11 02:22:24;;;;;;;29.52;16.75;;;-4.70;99.90;;;;;;5044688;28;20040;-54
2024/01/11 02:24:50;;;;;;;29.52;16.02;;;-4.80;99.90;;;;;;5041707;28;20411;-55
2024/01/11 02:27:15;;;;;;;30.05;16.80;;;-4.80;99.90;;;;;;5045122;28;20056;-49
2024/01/11 02:29:41;;;;;;;31.92;17.33;;;-4.90;99.90;;;;;;5024766;28;20918;-48
2024/01/11 02:32:08;;;;;;;31.55;17.15;;;-4.90;99.90;;;;;;5026888;28;20050;-53
2024/01/11 02:34:34;;;;;;;33.92;18.60;;;-4.90;99.90;;;;;;5043121;28;20045;-58
2024/01/11 02:37:00;;;;;;;35.70;19.10;;;-4.80;99.90;;;;;;5043873;28;20047;-58
2024/01/11 02:39:26;;;;;;;33.97;17.30;;;-4.90;99.90;;;;;;5045098;28;20037;-55
2024/01/11 02:41:56;;;;;;;33.95;17.25;;;-4.90;99.90;;;;;;5042588;28;20490;-61
2024/01/11 02:44:22;;;;;;;35.08;17.77;;;-4.90;99.90;;;;;;5027512;28;20147;-47
2024/01/11 02:46:47;;;;;;;30.65;16.65;;;-4.90;99.90;;;;;;5041816;28;20582;-52
2024/01/11 02:49:13;;;;;;;37.65;18.17;;;-4.90;99.90;;;;;;5044493;28;20122;-57
2024/01/11 02:51:39;;;;;;;29.08;15.80;;;-4.90;99.90;;;;;;5025332;28;20498;-58
2024/01/11 02:54:05;;;;;;;30.75;16.77;;;-4.80;99.90;;;;;;5043206;28;20044;-57
2024/01/11 02:56:30;;;;;;;37.78;18.23;;;-4.80;99.90;;;;;;5026665;28;20041;-56
2024/01/11 02:58:56;;;;;;;34.72;17.75;;;-4.70;99.90;;;;;;5042323;28;20384;-48
2024/01/11 03:01:22;;;;;;;34.30;17.33;;;-4.70;99.90;;;;;;5044510;28;20509;-49
2024/01/11 03:03:48;;;;;;;39.00;19.15;;;-4.60;99.90;;;;;;5042261;28;20040;-58
2024/01/11 03:06:14;;;;;;;36.05;19.52;;;-4.50;99.90;;;;;;5043592;28;20110;-51
2024/01/11 03:08:40;;;;;;;37.28;18.63;;;-4.40;99.90;;;;;;5024710;28;20057;-51
2024/01/11 03:11:06;;;;;;;36.25;18.58;;;-4.30;99.90;;;;;;5040463;28;20110;-59
2024/01/11 03:13:32;;;;;;;38.20;18.40;;;-4.20;99.90;;;;;;5009081;28;20575;-55
2024/01/11 03:15:58;;;;;;;38.75;18.90;;;-4.10;99.90;;;;;;5036756;28;20083;-56
2024/01/11 03:18:23;;;;;;;38.63;20.10;;;-4.00;99.90;;;;;;5043770;28;20484;-48
2024/01/11 03:20:49;;;;;;;35.70;17.98;;;-4.00;99.90;;;;;;5042005;28;20083;-52
2024/01/11 03:23:14;;;;;;;38.47;18.35;;;-3.90;99.90;;;;;;5043598;28;20068;-57
2024/01/11 03:25:40;;;;;;;38.45;19.88;;;-3.80;99.90;;;;;;5040830;28;20148;-47
2024/01/11 03:28:06;;;;;;;42.95;20.33;;;-3.70;99.90;;;;;;5026017;28;20044;-58
2024/01/11 03:30:32;;;;;;;43.33;19.92;;;-3.70;99.90;;;;;;5043239;28;20053;-48
2024/01/11 03:32:57;;;;;;;39.35;20.52;;;-3.60;99.90;;;;;;5043099;28;20064;-56
2024/01/11 03:35:23;;;;;;;40.33;20.17;;;-3.60;99.90;;;;;;5024701;28;20048;-50
2024/01/11 03:37:49;;;;;;;42.08;20.10;;;-3.40;99.90;;;;;;5040940;28;20142;-49
2024/01/11 03:40:15;;;;;;;44.28;21.73;;;-3.40;99.90;;;;;;5043584;28;20041;-56
2024/01/11 03:42:42;;;;;;;39.72;20.15;;;-3.40;99.90;;;;;;5042079;28;20513;-62
2024/01/11 03:45:08;;;;;;;37.55;19.63;;;-3.30;99.90;;;;;;5025581;28;20037;-59
2024/01/11 03:47:34;;;;;;;41.40;20.83;;;-3.30;99.90;;;;;;5041223;28;20728;-58
2024/01/11 03:49:59;;;;;;;38.22;20.20;;;-3.20;99.90;;;;;;5042901;28;20049;-59
2024/01/11 03:52:25;;;;;;;41.47;21.33;;;-3.20;99.90;;;;;;5042992;28;20124;-56
2024/01/11 03:54:51;;;;;;;47.55;21.45;;;-3.10;99.90;;;;;;5042026;28;20055;-54
2024/01/11 03:57:17;;;;;;;46.05;23.90;;;-3.00;99.90;;;;;;5044036;28;20045;-54
2024/01/11 03:59:43;;;;;;;44.45;22.25;;;-3.00;99.90;;;;;;5041735;28;20045;-54
2024/01/11 04:02:14;;;;;;;41.20;22.40;;;-3.00;99.90;;;;;;5034006;28;20083;-57
2024/01/11 04:04:41;;;;;;;44.90;23.30;;;-2.90;99.90;;;;;;5022543;28;20139;-61
2024/01/11 04:07:07;;;;;;;44.13;22.15;;;-2.90;99.90;;;;;;5024517;28;20041;-56
2024/01/11 04:09:32;;;;;;;44.53;22.23;;;-2.80;99.90;;;;;;5029262;28;20059;-54
2024/01/11 04:11:58;;;;;;;46.38;23.08;;;-2.80;99.90;;;;;;5052423;28;20052;-59
2024/01/11 04:14:24;;;;;;;44.28;22.23;;;-2.70;99.90;;;;;;5053239;28;20051;-52
2024/01/11 04:16:49;;;;;;;48.80;22.98;;;-2.70;99.90;;;;;;5052194;28;20048;-58
2024/01/11 04:19:15;;;;;;;44.88;23.15;;;-2.60;99.90;;;;;;5025083;28;20111;-49
2024/01/11 04:21:41;;;;;;;46.75;21.88;;;-2.60;99.90;;;;;;5023776;28;20207;-51
2024/01/11 04:24:07;;;;;;;49.47;22.58;;;-2.60;99.90;;;;;;5042572;28;20586;-53
2024/01/11 04:26:33;;;;;;;48.40;23.00;;;-2.60;99.90;;;;;;5011572;28;20124;-57
2024/01/11 04:28:59;;;;;;;49.35;23.23;;;-2.50;99.90;;;;;;5024033;28;20151;-55
2024/01/11 04:31:26;;;;;;;42.33;21.95;;;-2.50;99.90;;;;;;5042322;28;20071;-51
2024/01/11 04:33:52;;;;;;;41.88;20.92;;;-2.40;99.90;;;;;;5023543;28;20041;-49
2024/01/11 04:36:18;;;;;;;48.85;22.33;;;-2.40;99.90;;;;;;5041944;28;20044;-51
2024/01/11 04:38:46;;;;;;;42.42;19.73;;;-2.30;99.90;;;;;;5041204;28;20118;-54
2024/01/11 04:41:13;;;;;;;44.70;21.75;;;-2.30;99.90;;;;;;5042874;28;20053;-57
2024/01/11 04:43:40;;;;;;;26.73;14.73;;;-2.20;99.90;;;;;;5041178;28;20555;-56
2024/01/11 04:46:15;;;;;;;23.67;13.00;;;-2.10;99.90;;;;;;5040312;28;20044;-57
2024/01/11 04:48:41;;;;;;;22.13;10.82;;;-1.90;99.90;;;;;;5041766;28;20514;-58
2024/01/11 04:51:07;;;;;;;20.02;11.15;;;-1.60;99.90;;;;;;5041026;28;20372;-59
2024/01/11 04:53:32;;;;;;;22.75;10.68;;;-1.30;99.90;;;;;;5042735;28;20056;-53
2024/01/11 04:55:58;;;;;;;20.60;10.85;;;-1.20;99.90;;;;;;5021432;28;20053;-55
2024/01/11 04:58:24;;;;;;;22.42;10.95;;;-1.00;99.90;;;;;;5042481;28;20064;-51
2024/01/11 05:00:49;;;;;;;17.35;10.88;;;-0.90;99.90;;;;;;5022267;28;20518;-61
2024/01/11 05:03:15;;;;;;;18.55;9.93;;;-0.80;99.90;;;;;;5024233;28;20049;-60
2024/01/11 05:05:41;;;;;;;17.35;9.77;;;-0.70;99.90;;;;;;5041634;28;20353;-50
2024/01/11 05:08:07;;;;;;;19.42;10.02;;;-0.60;99.90;;;;;;5040748;28;20052;-56
2024/01/11 05:10:32;;;;;;;19.30;10.40;;;-0.50;99.90;;;;;;5037402;28;20040;-49
2024/01/11 05:12:58;;;;;;;21.13;10.40;;;-0.40;99.90;;;;;;5022770;28;20138;-59
2024/01/11 05:15:24;;;;;;;20.02;9.75;;;-0.40;99.90;;;;;;5042286;28;20064;-60
2024/01/11 05:17:50;;;;;;;22.25;10.13;;;-0.40;99.90;;;;;;5039895;28;20037;-57
2024/01/11 05:20:16;;;;;;;21.80;9.57;;;-0.40;99.90;;;;;;5023956;28;20049;-58
2024/01/11 05:22:42;;;;;;;24.13;11.55;;;-0.40;99.90;;;;;;5041075;28;20098;-50
2024/01/11 05:25:08;;;;;;;24.15;11.20;;;-0.40;99.90;;;;;;5042072;28;20398;-59
2024/01/11 05:27:33;;;;;;;24.50;11.10;;;-0.40;99.90;;;;;;5023850;28;20104;-57
2024/01/11 05:29:59;;;;;;;24.30;10.43;;;-0.30;99.90;;;;;;5041285;28;20087;-54
2024/01/11 05:32:25;;;;;;;24.95;11.73;;;-0.40;99.90;;;;;;5007960;28;20132;-58
2024/01/11 05:34:50;;;;;;;27.70;12.43;;;-0.40;99.90;;;;;;5022193;28;20087;-52
2024/01/11 05:37:16;;;;;;;23.33;11.50;;;-0.40;99.90;;;;;;5023930;28;20056;-52
2024/01/11 05:39:42;;;;;;;33.55;12.65;;;-0.50;99.90;;;;;;5039510;28;20403;-56
2024/01/11 05:42:08;;;;;;;33.70;12.75;;;-0.50;99.90;;;;;;5031134;28;20064;-57
2024/01/11 05:44:33;;;;;;;25.17;11.75;;;-0.50;99.90;;;;;;5047740;28;20056;-55
2024/01/11 05:46:59;;;;;;;25.15;12.50;;;-0.50;99.90;;;;;;5041716;28;20052;-50
2024/01/11 05:49:25;;;;;;;23.02;11.50;;;-0.60;99.90;;;;;;5023949;28;20091;-48
2024/01/11 05:51:51;;;;;;;27.15;12.70;;;-0.50;99.90;;;;;;5006063;28;20123;-55
2024/01/11 05:54:16;;;;;;;31.73;13.05;;;-0.50;99.90;;;;;;5042068;28;20041;-55
2024/01/11 05:56:42;;;;;;;34.40;12.57;;;-0.50;99.90;;;;;;5040316;28;20124;-58
2024/01/11 05:59:07;;;;;;;29.35;11.88;;;-0.50;99.90;;;;;;5024793;28;20144;-47
2024/01/11 06:01:33;;;;;;;28.58;11.15;;;-0.50;99.90;;;;;;5024936;28;20036;-59
2024/01/11 06:03:59;;;;;;;33.17;13.18;;;-0.50;99.90;;;;;;5045115;28;20097;-54
2024/01/11 06:06:25;;;;;;;31.73;13.02;;;-0.50;99.90;;;;;;5026738;28;20095;-51
2024/01/11 06:08:50;;;;;;;27.45;11.98;;;-0.50;99.90;;;;;;5044378;28;20088;-60
2024/01/11 06:11:18;;;;;;;30.05;11.95;;;-0.50;99.90;;;;;;5047965;28;20043;-48
2024/01/11 06:13:43;;;;;;;31.77;13.85;;;-0.50;99.90;;;;;;5043933;28;20336;-49
2024/01/11 06:16:09;;;;;;;42.20;16.17;;;-0.50;99.90;;;;;;5040728;28;20517;-57
2024/01/11 06:18:36;;;;;;;41.30;16.13;;;-0.50;99.90;;;;;;5043794;28;20041;-57
2024/01/11 06:21:01;;;;;;;45.40;18.63;;;-0.50;99.90;;;;;;5045742;28;20051;-50
2024/01/11 06:23:27;;;;;;;40.25;18.35;;;-0.50;99.90;;;;;;5056090;28;20053;-53
2024/01/11 06:25:53;;;;;;;41.83;17.80;;;-0.60;99.90;;;;;;5026736;28;20040;-55
2024/01/11 06:28:18;;;;;;;45.03;18.75;;;-0.60;99.90;;;;;;5044086;28;20477;-57
2024/01/11 06:30:44;;;;;;;48.53;20.10;;;-0.70;99.90;;;;;;5009491;28;20049;-54
2024/01/11 06:33:10;;;;;;;44.13;18.88;;;-0.70;99.90;;;;;;5044473;28;20411;-54
2024/01/11 06:35:35;;;;;;;45.58;19.60;;;-0.70;99.90;;;;;;5025652;28;20057;-58
2024/01/11 06:38:01;;;;;;;47.40;19.40;;;-0.70;99.90;;;;;;5044641;28;20052;-49
2024/01/11 06:40:27;;;;;;;46.50;18.55;;;-0.80;99.90;;;;;;5043052;28;20471;-58
2024/01/11 06:42:53;;;;;;;56.92;21.98;;;-0.70;99.90;;;;;;5025720;28;20492;-52
2024/01/11 06:45:18;;;;;;;46.20;18.85;;;-0.80;99.90;;;;;;5040387;28;20041;-51
2024/01/11 06:47:45;;;;;;;48.65;21.25;;;-0.80;99.90;;;;;;5039219;28;20052;-59
2024/01/11 06:50:12;;;;;;;52.72;22.60;;;-0.80;99.90;;;;;;5044154;28;20045;-48
2024/01/11 06:52:38;;;;;;;53.13;21.85;;;-0.80;99.90;;;;;;5024299;28;20107;-51
2024/01/11 06:55:05;;;;;;;49.75;21.63;;;-0.90;99.90;;;;;;5044038;28;20209;-53
2024/01/11 06:57:30;;;;;;;48.95;22.17;;;-0.80;99.90;;;;;;5007872;28;20060;-50
2024/01/11 06:59:56;;;;;;;51.15;21.27;;;-0.90;99.90;;;;;;5026556;28;20072;-62
2024/01/11 07:02:22;;;;;;;47.22;22.80;;;-0.90;99.90;;;;;;5025080;28;20174;-55
2024/01/11 07:04:47;;;;;;;49.47;22.40;;;-0.90;99.90;;;;;;5025051;28;20048;-59
2024/01/11 07:07:13;;;;;;;50.60;22.05;;;-0.90;99.90;;;;;;5043971;28;20800;-52
2024/01/11 07:09:39;;;;;;;47.17;21.05;;;-1.00;99.90;;;;;;5048039;28;20161;-51
2024/01/11 07:12:05;;;;;;;51.00;22.17;;;-0.90;99.90;;;;;;5063628;28;20063;-53
2024/01/11 07:14:31;;;;;;;50.47;22.10;;;-0.90;99.90;;;;;;5023693;28;20045;-58
2024/01/11 07:16:57;;;;;;;50.88;22.75;;;-0.90;99.90;;;;;;5019816;28;20068;-54
2024/01/11 07:19:23;;;;;;;48.83;22.02;;;-0.90;99.90;;;;;;5042615;28;20538;-56
2024/01/11 07:21:49;;;;;;;44.80;21.98;;;-0.90;99.90;;;;;;5043684;28;20099;-62
2024/01/11 07:24:15;;;;;;;51.88;21.55;;;-0.90;99.90;;;;;;5025342;28;20124;-54
2024/01/11 07:26:41;;;;;;;48.78;21.65;;;-0.90;99.90;;;;;;5024777;28;20478;-49
2024/01/11 07:29:07;;;;;;;40.63;20.85;;;-0.90;99.90;;;;;;5025183;28;20368;-51
2024/01/11 07:31:33;;;;;;;46.50;21.85;;;-0.90;99.90;;;;;;5040996;28;20559;-54
2024/01/11 07:33:59;;;;;;;37.88;18.52;;;-0.90;99.90;;;;;;5043967;28;20041;-55
2024/01/11 07:36:24;;;;;;;46.20;21.23;;;-0.80;99.90;;;;;;5041211;28;20550;-56
2024/01/11 07:38:50;;;;;;;44.28;20.52;;;-0.90;99.90;;;;;;5044347;28;20116;-49
2024/01/11 07:41:16;;;;;;;46.22;22.83;;;-0.90;99.90;;;;;;5023037;28;20399;-50
2024/01/11 07:43:43;;;;;;;47.80;19.70;;;-0.80;99.90;;;;;;5040482;28;20055;-60
2024/01/11 07:46:09;;;;;;;46.58;20.10;;;-0.80;99.90;;;;;;5038456;28;20107;-51
2024/01/11 07:48:35;;;;;;;41.05;19.90;;;-0.80;99.90;;;;;;5041371;28;20202;-55
2024/01/11 07:51:00;;;;;;;44.15;19.58;;;-0.80;99.90;;;;;;5028209;28;20055;-58
2024/01/11 07:53:26;;;;;;;42.28;18.85;;;-0.80;99.90;;;;;;5023354;28;20040;-58
2024/01/11 07:55:52;;;;;;;39.05;18.48;;;-0.80;99.90;;;;;;5019254;28;20110;-58
2024/01/11 07:58:20;;;;;;;37.22;18.35;;;-0.70;99.90;;;;;;5036767;28;20048;-57
2024/01/11 08:00:46;;;;;;;39.42;18.42;;;-0.70;99.90;;;;;;5022284;28;20049;-56
2024/01/11 08:03:12;;;;;;;40.25;18.45;;;-0.70;99.90;;;;;;5023356;28;20053;-54
2024/01/11 08:05:38;;;;;;;37.97;18.27;;;-0.70;99.90;;;;;;5041199;28;20043;-59
2024/01/11 08:08:04;;;;;;;36.28;17.25;;;-0.60;99.90;;;;;;5043341;28;20479;-54
2024/01/11 08:10:33;;;;;;;40.63;19.55;;;-0.60;99.90;;;;;;5049598;28;20079;-56
2024/01/11 08:13:00;;;;;;;37.95;18.17;;;-0.60;99.90;;;;;;5032393;28;21017;-53
2024/01/11 08:15:26;;;;;;;38.63;18.80;;;-0.50;99.90;;;;;;5041085;28;20037;-55
2024/01/11 08:17:51;;;;;;;36.17;18.52;;;-0.50;99.90;;;;;;5041804;28;20041;-47
2024/01/11 08:20:17;;;;;;;35.20;17.38;;;-0.50;99.90;;;;;;5042663;28;20045;-50
2024/01/11 08:22:43;;;;;;;35.80;18.65;;;-0.50;99.90;;;;;;5040312;28;20200;-53
2024/01/11 08:25:09;;;;;;;39.50;18.58;;;-0.40;99.90;;;;;;5037559;28;20100;-59
2024/01/11 08:27:35;;;;;;;37.50;17.70;;;-0.40;99.90;;;;;;5040195;28;20171;-57
2024/01/11 08:30:02;;;;;;;35.85;15.95;;;-0.40;99.90;;;;;;5042085;28;20093;-57
2024/01/11 08:32:28;;;;;;;35.28;16.60;;;-0.40;99.90;;;;;;5022807;28;20124;-55
2024/01/11 08:34:54;;;;;;;37.08;17.45;;;-0.30;99.90;;;;;;5040668;28;20037;-53
2024/01/11 08:37:19;;;;;;;31.38;16.95;;;-0.30;99.90;;;;;;5033635;28;20454;-59
2024/01/11 08:39:46;;;;;;;36.67;15.82;;;-0.30;99.90;;;;;;5033891;28;20483;-53
2024/01/11 08:42:12;;;;;;;42.47;17.40;;;-0.30;99.90;;;;;;5042630;28;20380;-51
2024/01/11 08:44:45;;;;;;;30.73;15.93;;;-0.20;99.90;;;;;;5040188;28;20827;-49
2024/01/11 08:47:10;;;;;;;37.45;16.95;;;-0.10;99.90;;;;;;5011873;28;20442;-49
2024/01/11 08:49:39;;;;;;;30.02;15.27;;;0.00;99.90;;;;;;5040864;28;20045;-52
2024/01/11 08:52:05;;;;;;;36.28;15.68;;;0.00;99.90;;;;;;5042560;28;20041;-55
2024/01/11 08:54:32;;;;;;;32.90;14.88;;;0.00;99.90;;;;;;5023015;28;20049;-46
2024/01/11 08:57:03;;;;;;;32.65;14.77;;;0.10;99.90;;;;;;5041959;28;20052;-53
2024/01/11 08:59:28;;;;;;;32.90;15.10;;;0.10;99.90;;;;;;5042272;28;20045;-57
2024/01/11 09:01:54;;;;;;;31.33;15.32;;;0.10;99.90;;;;;;5040782;28;20268;-48
2024/01/11 09:04:20;;;;;;;32.97;15.02;;;0.20;99.90;;;;;;5024802;28;20045;-53
2024/01/11 09:06:45;;;;;;;28.20;13.65;;;0.30;99.90;;;;;;5038836;28;20045;-51
2024/01/11 09:09:13;;;;;;;26.83;13.40;;;0.30;99.90;;;;;;5042662;28;20041;-60
2024/01/11 09:11:41;;;;;;;36.67;15.55;;;0.30;99.90;;;;;;5051744;28;20041;-47
2024/01/11 09:14:10;;;;;;;34.50;15.43;;;0.40;99.90;;;;;;5024059;28;20162;-58
2024/01/11 09:16:37;;;;;;;31.15;14.88;;;0.40;99.90;;;;;;5023929;28;20194;-60
2024/01/11 09:19:02;;;;;;;27.10;12.80;;;0.40;99.90;;;;;;5040081;28;20563;-58
2024/01/11 09:21:28;;;;;;;31.27;14.48;;;0.50;99.90;;;;;;5024474;28;20041;-53
2024/01/11 09:23:54;;;;;;;31.95;13.82;;;0.60;99.90;;;;;;5033727;28;20065;-56
2024/01/11 09:26:19;;;;;;;26.73;13.15;;;0.60;99.90;;;;;;5045873;28;20045;-55
2024/01/11 09:28:45;;;;;;;32.13;14.27;;;0.60;99.90;;;;;;5005002;28;20060;-56
2024/01/11 09:31:12;;;;;;;29.60;14.15;;;0.60;99.90;;;;;;5007841;28;20091;-58
2024/01/11 09:33:38;;;;;;;29.73;13.95;;;0.70;99.90;;;;;;5024571;28;20045;-55
2024/01/11 09:36:04;;;;;;;30.40;13.68;;;0.70;99.90;;;;;;5044995;28;20052;-48
2024/01/11 09:38:30;;;;;;;23.95;11.32;;;0.70;99.90;;;;;;5041668;28;20048;-52
2024/01/11 09:41:15;;;;;;;26.63;12.75;;;0.80;99.90;;;;;;5020981;28;20052;-57
2024/01/11 09:43:42;;;;;;;22.63;11.57;;;0.80;99.90;;;;;;5034148;28;20049;-48
2024/01/11 09:46:09;;;;;;;24.10;12.55;;;0.80;99.90;;;;;;5034456;28;20130;-46
2024/01/11 09:48:38;;;;;;;24.67;12.20;;;0.80;99.90;;;;;;5027683;28;20132;-57
2024/01/11 09:51:07;;;;;;;22.20;11.55;;;0.90;99.90;;;;;;5043853;28;20058;-50
2024/01/11 09:53:34;;;;;;;28.05;13.05;;;0.90;99.90;;;;;;5024380;28;20079;-61
2024/01/11 09:56:00;;;;;;;25.27;12.85;;;0.90;99.90;;;;;;5037010;28;20045;-54
2024/01/11 09:58:26;;;;;;;30.17;14.38;;;0.90;99.90;;;;;;5040906;28;20483;-54
2024/01/11 10:00:56;;;;;;;30.05;14.00;;;1.00;99.90;;;;;;5044473;28;20505;-53
2024/01/11 10:03:26;;;;;;;16.50;8.70;;;1.00;99.90;;;;;;5004234;28;20048;-49
2024/01/11 10:05:57;;;;;;;28.23;12.90;;;1.00;99.90;;;;;;5040381;28;20637;-57
2024/01/11 10:08:23;;;;;;;27.48;13.02;;;1.00;99.90;;;;;;5038080;28;20055;-47
2024/01/11 10:10:49;;;;;;;23.73;12.15;;;1.00;99.90;;;;;;5056211;28;20422;-54
2024/01/11 10:13:16;;;;;;;26.60;11.98;;;1.10;99.90;;;;;;5040688;28;20065;-57
2024/01/11 10:15:42;;;;;;;24.58;12.80;;;1.10;99.90;;;;;;5057397;28;20037;-53
2024/01/11 10:18:08;;;;;;;23.42;12.48;;;1.10;99.90;;;;;;5050503;28;20048;-56
2024/01/11 10:20:34;;;;;;;27.17;13.35;;;1.10;99.90;;;;;;5049231;28;20414;-59
2024/01/11 10:23:01;;;;;;;28.00;13.93;;;1.20;99.90;;;;;;5042633;28;20121;-57
2024/01/11 10:25:28;;;;;;;27.52;13.38;;;1.20;99.90;;;;;;5024571;28;20096;-48
2024/01/11 10:27:54;;;;;;;26.13;12.95;;;1.20;99.90;;;;;;5045947;28;20565;-51
2024/01/11 10:30:22;;;;;;;27.45;13.25;;;1.20;99.90;;;;;;5044941;28;20204;-56
2024/01/11 10:32:48;;;;;;;26.25;13.38;;;1.30;99.90;;;;;;5038768;28;20724;-56
2024/01/11 10:35:21;;;;;;;29.00;13.75;;;1.40;99.90;;;;;;5020903;28;20084;-56
2024/01/11 10:37:53;;;;;;;31.48;13.30;;;1.40;99.90;;;;;;5040176;28;20491;-61
2024/01/11 10:40:24;;;;;;;28.85;12.80;;;1.30;99.90;;;;;;5015510;28;20142;-55
2024/01/11 10:42:52;;;;;;;27.33;13.35;;;1.40;99.90;;;;;;5040185;28;20089;-54
2024/01/11 10:45:20;;;;;;;32.20;14.23;;;1.40;99.90;;;;;;5043648;28;20514;-56
2024/01/11 10:47:48;;;;;;;29.77;12.35;;;1.40;99.90;;;;;;5044927;28;20342;-50
2024/01/11 10:50:16;;;;;;;29.38;14.68;;;1.40;99.90;;;;;;5024909;28;20479;-51
2024/01/11 10:52:58;;;;;;;23.88;12.88;;;1.50;99.90;;;;;;5042634;28;20578;-59
2024/01/11 10:55:25;;;;;;;29.30;14.27;;;1.50;99.90;;;;;;5023145;28;20101;-51
2024/01/11 10:57:51;;;;;;;33.08;13.63;;;1.50;99.90;;;;;;5044550;28;20053;-59
2024/01/11 11:00:18;;;;;;;23.48;12.50;;;1.60;99.90;;;;;;5043368;28;20052;-55
2024/01/11 11:02:45;;;;;;;31.75;13.23;;;1.60;99.90;;;;;;5024878;28;20510;-50
2024/01/11 11:05:13;;;;;;;25.98;12.75;;;1.60;99.90;;;;;;5040171;28;20508;-59
2024/01/11 11:07:41;;;;;;;29.50;14.45;;;1.60;99.90;;;;;;5050732;28;20056;-53
2024/01/11 11:10:09;;;;;;;29.42;13.93;;;1.60;99.90;;;;;;5040019;28;20421;-59
2024/01/11 11:12:37;;;;;;;25.60;12.85;;;1.70;99.90;;;;;;5057977;28;20056;-51
2024/01/11 11:15:04;;;;;;;24.10;11.60;;;1.70;99.90;;;;;;5042507;28;20273;-46
2024/01/11 11:17:30;;;;;;;26.58;12.55;;;1.70;99.90;;;;;;5038128;28;20079;-59
2024/01/11 11:19:57;;;;;;;20.00;10.90;;;1.70;99.90;;;;;;5023320;28;20522;-60
2024/01/11 11:22:23;;;;;;;20.75;10.55;;;1.70;99.90;;;;;;5043661;28;20048;-52
2024/01/11 11:25:02;;;;;;;24.92;12.40;;;1.70;99.90;;;;;;5046749;28;20469;-58
2024/01/11 11:27:28;;;;;;;21.73;12.25;;;1.70;99.90;;;;;;5031353;28;20048;-52
2024/01/11 11:29:53;;;;;;;21.98;10.88;;;1.70;99.90;;;;;;5042011;28;20387;-49
2024/01/11 11:32:36;;;;;;;29.35;13.63;;;1.70;99.90;;;;;;5042662;28;20197;-49
2024/01/11 11:35:02;;;;;;;18.65;9.73;;;1.80;99.90;;;;;;5024771;28;20045;-53
2024/01/11 11:37:29;;;;;;;22.00;10.80;;;1.80;99.90;;;;;;5040865;28;20415;-52
2024/01/11 11:39:57;;;;;;;36.42;13.85;;;1.80;99.90;;;;;;5042351;28;20040;-54
2024/01/11 11:42:23;;;;;;;26.23;12.32;;;1.80;99.90;;;;;;5041464;28;20060;-52
2024/01/11 11:44:50;;;;;;;21.10;11.18;;;1.80;99.90;;;;;;5043626;28;20486;-50
2024/01/11 11:47:23;;;;;;;25.98;10.65;;;1.80;99.90;;;;;;5016899;28;20424;-47
2024/01/11 11:50:09;;;;;;;23.38;10.20;;;1.80;99.90;;;;;;5024244;28;20053;-59
2024/01/11 11:52:41;;;;;;;20.95;10.57;;;1.80;99.90;;;;;;5043012;28;20053;-52
2024/01/11 11:55:08;;;;;;;14.27;7.65;;;1.80;99.90;;;;;;5041056;28;20041;-59
2024/01/11 11:57:35;;;;;;;21.83;9.82;;;1.80;99.90;;;;;;5042597;28;20087;-59
2024/01/11 12:00:06;;;;;;;20.85;11.55;;;1.80;99.90;;;;;;5035709;28;20033;-53
2024/01/11 12:02:32;;;;;;;22.60;11.90;;;1.80;99.90;;;;;;5043234;28;20339;-51
2024/01/11 12:04:57;;;;;;;22.70;12.38;;;1.80;99.90;;;;;;5023653;28;20043;-53
2024/01/11 12:07:24;;;;;;;20.02;10.85;;;1.80;99.90;;;;;;5041692;28;20044;-56
2024/01/11 12:09:51;;;;;;;25.02;11.98;;;1.80;99.90;;;;;;5039310;28;20061;-55
2024/01/11 12:12:20;;;;;;;28.05;13.02;;;1.80;99.90;;;;;;5051937;28;20113;-59
2024/01/11 12:14:48;;;;;;;20.50;9.43;;;1.80;99.90;;;;;;5031211;28;20076;-54
2024/01/11 12:17:14;;;;;;;32.20;12.45;;;1.80;99.90;;;;;;5040041;28;20072;-57
2024/01/11 12:19:40;;;;;;;32.92;10.68;;;1.80;99.90;;;;;;5033329;28;20358;-59
2024/01/11 12:22:07;;;;;;;20.23;9.48;;;1.90;99.90;;;;;;5018698;28;20059;-53
2024/01/11 12:24:34;;;;;;;19.35;9.95;;;1.90;99.90;;;;;;5042232;28;20040;-51
2024/01/11 12:27:01;;;;;;;20.40;11.65;;;1.90;99.90;;;;;;5051723;28;20049;-49